Thursday, February 22, 2018, 12:11 PM EST
Back to Local

K1P1, Plymouth, Plymouth Municipal Airport

Location: Plymouth, NH, United States Lat: 43.779
Local Time: 12:11 PM EST (17:11 GMT) Lon: -71.754
Time Zone: US/Eastern Elev: 505 ft

Show me the last for .
Show Decoded

2018-02-22 11:55 METAR K1P1 221655Z AUTO 28005KT 10SM BKN050 OVC060 01/M08 A3066 RMK AO2
                 T00101084 =
2018-02-22 11:29 METAR K1P1 221635Z AUTO 28008KT 10SM OVC065 01/M08 A3067 RMK AO2 T00111080 =
2018-02-22 11:15 METAR K1P1 221615Z AUTO 28007KT 10SM OVC065 01/M08 A3067 RMK AO2 T00111077 =
2018-02-22 10:55 METAR K1P1 221555Z AUTO 28004KT 10SM BKN075 OVC085 01/M08 A3065 RMK AO2
                 T00111077 =
2018-02-22 10:25 METAR K1P1 221535Z AUTO 29003KT 10SM SCT080 OVC085 01/M08 A3064 RMK AO2
                 T00101076 =
2018-02-22 10:15 METAR K1P1 221515Z AUTO 29005KT 10SM BKN090 OVC120 01/M08 A3065 RMK AO2
                 T00101080 =
2018-02-22 09:55 METAR K1P1 221455Z AUTO 29003KT 10SM OVC100 01/M08 A3065 RMK AO2 T00091084 =
2018-02-22 09:28 METAR K1P1 221435Z AUTO 28004KT 10SM OVC100 01/M08 A3066 RMK AO2 T00081082 =
2018-02-22 09:15 METAR K1P1 221415Z AUTO 27007KT 10SM OVC110 01/M08 A3066 RMK AO2 T00061084 =
2018-02-22 08:55 METAR K1P1 221355Z AUTO 28006KT 10SM OVC110 01/M08 A3065 RMK AO2 T00051080 =
2018-02-22 08:15 METAR K1P1 221315Z AUTO 29003KT 10SM OVC100 00/M07 A3063 RMK AO2 T00011072 =
2018-02-22 07:55 METAR K1P1 221255Z AUTO 28003KT 10SM OVC100 00/M07 A3063 RMK AO2 T00011073 =
2018-02-22 07:27 METAR K1P1 221235Z AUTO 26004KT 10SM OVC100 00/M07 A3062 RMK AO2 T00011074 =
2018-02-22 07:15 METAR K1P1 221215Z AUTO 28004KT 10SM OVC110 00/M07 A3062 RMK AO2 T00011073 =
2018-02-22 06:55 METAR K1P1 221155Z AUTO 28004KT 10SM SCT110 00/M07 A3061 RMK AO2 T00011074 10028
                 20001 =
2018-02-22 06:27 METAR K1P1 221135Z AUTO 30005KT 10SM BKN110 00/M07 A3059 RMK AO2 T00021072 =
2018-02-22 06:15 METAR K1P1 221115Z AUTO 28007KT 10SM OVC110 00/M07 A3059 RMK AO2 T00031073 =
2018-02-22 05:55 METAR K1P1 221055Z AUTO 29006KT 10SM OVC110 00/M07 A3059 RMK AO2 T00041072 =
2018-02-22 05:23 METAR K1P1 221035Z AUTO 27005KT 10SM OVC110 00/M07 A3059 RMK AO2 T00031068 =
2018-02-22 05:15 METAR K1P1 221015Z AUTO 27007KT 10SM OVC110 01/M07 A3058 RMK AO2 T00051066 =
2018-02-22 04:55 METAR K1P1 220955Z AUTO 28004KT 10SM SCT100 00/M06 A3058 RMK AO2 T00031063 =
2018-02-22 04:26 METAR K1P1 220935Z AUTO 29006KT 10SM CLR 01/M06 A3056 RMK AO2 T00051060 =
2018-02-22 04:15 METAR K1P1 220915Z AUTO 31003KT 10SM SCT100 01/M06 A3057 RMK AO2 T00081062 =
2018-02-22 03:55 METAR K1P1 220855Z AUTO 31005KT 10SM BKN100 01/M06 A3056 RMK AO2 T00101061 =
2018-02-22 03:28 METAR K1P1 220835Z AUTO 31004KT 10SM SCT100 01/M06 A3056 RMK AO2 T00101061 =
2018-02-22 03:15 METAR K1P1 220815Z AUTO 30005KT 10SM CLR 01/M06 A3054 RMK AO2 T00121063 =
2018-02-22 02:55 METAR K1P1 220755Z AUTO 29005KT 10SM CLR 02/M07 A3055 RMK AO2 T00161070 =
2018-02-22 02:26 METAR K1P1 220735Z AUTO 31006KT 10SM CLR 02/M06 A3054 RMK AO2 T00181061 =
2018-02-22 02:15 METAR K1P1 220715Z AUTO 30007KT 10SM SCT085 02/M05 A3053 RMK AO2 T00211053 =
2018-02-22 01:55 METAR K1P1 220655Z AUTO 29007KT 10SM OVC085 03/M05 A3052 RMK AO2 T00251048 =
2018-02-22 01:34 METAR K1P1 220635Z AUTO 29009G14KT 10SM OVC085 03/M04 A3051 RMK AO2 T00261044 =
2018-02-22 01:15 METAR K1P1 220615Z AUTO 29011G15KT 10SM OVC085 03/M04 A3050 RMK AO2 T00251042 =
2018-02-22 00:55 METAR K1P1 220555Z AUTO 28011G16KT 10SM BKN085 03/M04 A3050 RMK AO2 T00281044
                 10092 20028 =
2018-02-22 00:24 METAR K1P1 220535Z AUTO 29008G15KT 10SM BKN085 03/M04 A3049 RMK AO2 T00301043 =
2018-02-22 00:15 METAR K1P1 220515Z AUTO 28010G15KT 10SM SCT085 03/M04 A3048 RMK AO2 T00321042 =
2018-02-21 23:55 METAR K1P1 220455Z AUTO 30009KT 10SM SCT085 03/M04 A3046 RMK AO2 T00341038 =
2018-02-21 23:33 METAR K1P1 220435Z AUTO 28010G16KT 10SM CLR 04/M03 A3045 RMK AO2 T00361035 =
2018-02-21 23:15 METAR K1P1 220415Z AUTO 29009G17KT 10SM CLR 05/M03 A3043 RMK AO2 T00451033 =
2018-02-21 22:55 METAR K1P1 220355Z AUTO 32013KT 10SM SCT080 05/M02 A3041 RMK AO2 T00491024
                 401991005 =
2018-02-21 22:25 METAR K1P1 220335Z AUTO 31007KT 10SM OVC080 06/M02 A3040 RMK AO2 T00551023 =
2018-02-21 22:15 METAR K1P1 220315Z AUTO 31010G15KT 10SM BKN080 06/M02 A3039 RMK AO2 T00611021 =
2018-02-21 21:55 METAR K1P1 220255Z AUTO 32005G08KT 10SM SCT080 07/M01 A3037 RMK AO2 T00661012 =
2018-02-21 21:25 METAR K1P1 220235Z AUTO 32007G15KT 10SM BKN080 07/M01 A3036 RMK AO2 T00701009 =
2018-02-21 21:14 METAR K1P1 220215Z AUTO 31011KT 10SM OVC070 07/00 A3035 RMK AO2 T00731001 =
2018-02-21 20:55 METAR K1P1 220155Z AUTO 30010KT 10SM OVC070 08/00 A3034 RMK AO2 T00780003 =
2018-02-21 20:26 METAR K1P1 220135Z AUTO 31008KT 10SM SCT055 OVC070 08/01 A3033 RMK AO2 T00830009
                 =
2018-02-21 20:15 METAR K1P1 220115Z AUTO 31007KT 10SM OVC049 09/02 A3032 RMK AO2 T00850019 =
2018-02-21 19:55 METAR K1P1 220055Z AUTO 30008KT 10SM OVC049 09/03 A3031 RMK AO2 T00860029 =
2018-02-21 19:29 METAR K1P1 220035Z AUTO 30005KT 10SM OVC045 09/03 A3029 RMK AO2 T00900034 =
2018-02-21 19:15 METAR K1P1 220015Z AUTO 29005KT 10SM SCT034 OVC045 09/04 A3028 RMK AO2 T00900039
                 =
2018-02-21 18:55 METAR K1P1 212355Z AUTO 29008G16KT 10SM SCT034 OVC043 09/04 A3027 RMK AO2
                 T00910043 10199 20090 =
2018-02-21 18:26 METAR K1P1 212335Z AUTO 29007G20KT 10SM SCT025 OVC045 09/05 A3026 RMK AO2
                 T00940048 =
2018-02-21 18:15 METAR K1P1 212315Z AUTO 29011G18KT 10SM OVC025 10/06 A3024 RMK AO2 T01020059 =
2018-02-21 17:55 METAR K1P1 212255Z AUTO 30012G18KT 10SM BKN023 OVC028 11/08 A3021 RMK AO2
                 T01110075 =
2018-02-21 17:26 METAR K1P1 212235Z AUTO 29009G18KT 10SM SCT020 BKN027 OVC055 12/10 A3018 RMK AO2
                 T01180095 =
2018-02-21 17:15 METAR K1P1 212215Z AUTO 28006KT 7SM -DZ BKN023 OVC033 13/11 A3015 RMK AO2
                 T01290108 =
2018-02-21 16:55 METAR K1P1 212155Z AUTO 27008G18KT 4SM -DZ BKN023 OVC035 14/11 A3014 RMK AO2
                 T01420108 =
2018-02-21 16:27 METAR K1P1 212135Z AUTO 28010G21KT 7SM -RA SCT034 OVC044 17/11 A3010 RMK AO2
                 T01730105 =
2018-02-21 16:15 METAR K1P1 212115Z AUTO 30003KT 10SM OVC050 18/09 A3005 RMK AO2 T01810093 =
2018-02-21 15:55 METAR K1P1 212055Z AUTO 00000KT 10SM OVC060 17/08 A3004 RMK AO2 T01660079 =
2018-02-21 15:29 METAR K1P1 212035Z AUTO 00000KT 10SM BKN060 OVC100 19/08 A3004 RMK AO2 T01910080
                 =
2018-02-21 15:02 METAR K1P1 212015Z AUTO 00000KT 10SM BKN060 18/09 A3003 RMK AO2 T01820089 =
2018-02-21 14:55 METAR K1P1 211955Z AUTO 00000KT 10SM BKN060 18/09 A3003 RMK AO2 T01840094 =
2018-02-21 14:27 METAR K1P1 211935Z AUTO 00000KT 10SM CLR 19/10 A3003 RMK AO2 T01850095 =
2018-02-21 14:15 METAR K1P1 211915Z AUTO 00000KT 10SM CLR 17/09 A3004 RMK AO2 T01680086 =
2018-02-21 13:55 METAR K1P1 211855Z AUTO 00000KT 10SM CLR 17/09 A3004 RMK AO2 T01660088 =
2018-02-21 13:27 METAR K1P1 211835Z AUTO 00000KT 10SM CLR 15/07 A3005 RMK AO2 T01530073 =
2018-02-21 13:15 METAR K1P1 211815Z AUTO 00000KT 10SM CLR 14/06 A3006 RMK AO2 T01410059 =
2018-02-21 12:55 METAR K1P1 211755Z AUTO 00000KT 10SM CLR 13/05 A3006 RMK AO2 T01320051 10132
                 20000 =
2018-02-21 12:28 METAR K1P1 211735Z AUTO 00000KT 10SM CLR 12/04 A3007 RMK AO2 T01210042 =
2018-02-21 12:15 METAR K1P1 211715Z AUTO 00000KT 10SM CLR 11/04 A3008 RMK AO2 T01100039 =

Support USWX by starting your Amazon purchase here.